Time;durP1;ratioP1;P1;durP2;ratioP2;P2;SDS_P1;SDS_P2;PMS_P1;PMS_P2;Temp;Humidity;BMP_temperature;BMP_pressure;BME280_temperature;BME280_humidity;BME280_pressure;Samples;Min_cycle;Max_cycle;Signal;HPM_P1;HPM_P2
2022/02/13 00:01:46;;;;;;;5.30;2.63;;;0.20;85.90;;;;;;5054141;28;20264;-82
2022/02/13 00:04:15;;;;;;;3.83;2.77;;;0.20;85.90;;;;;;5040830;28;20193;-82
2022/02/13 00:06:42;;;;;;;4.60;2.90;;;0.10;85.90;;;;;;5039768;28;20232;-82
2022/02/13 00:09:09;;;;;;;5.20;2.63;;;0.00;85.80;;;;;;5051599;28;20206;-82
2022/02/13 00:11:36;;;;;;;5.03;2.93;;;0.00;85.80;;;;;;5048977;28;20287;-85
2022/02/13 00:14:04;;;;;;;3.80;2.77;;;0.00;85.80;;;;;;5039074;28;20203;-82
2022/02/13 00:16:31;;;;;;;5.63;2.90;;;0.00;85.80;;;;;;5038804;28;20721;-83
2022/02/13 00:18:58;;;;;;;5.13;3.60;;;0.00;85.80;;;;;;5043616;28;20204;-82
2022/02/13 00:21:26;;;;;;;3.90;2.80;;;0.10;85.90;;;;;;5036967;28;20250;-85
2022/02/13 00:23:53;;;;;;;6.67;3.50;;;0.10;85.90;;;;;;5029303;28;20752;-82
2022/02/13 00:26:22;;;;;;;4.03;2.90;;;0.00;85.80;;;;;;5034009;28;20317;-83
2022/02/13 00:28:49;;;;;;;4.03;2.93;;;-0.10;85.80;;;;;;5046001;28;20233;-82
2022/02/13 00:31:16;;;;;;;5.70;2.90;;;-0.10;85.80;;;;;;5034990;28;20298;-84
2022/02/13 00:33:42;;;;;;;3.57;2.80;;;-0.10;85.80;;;;;;5025562;28;20198;-82
2022/02/13 00:36:09;;;;;;;4.43;3.10;;;-0.20;86.50;;;;;;5035888;28;20309;-85
2022/02/13 00:38:37;;;;;;;6.97;3.30;;;-0.30;86.40;;;;;;5038194;28;20261;-84
2022/02/13 00:41:04;;;;;;;6.27;2.90;;;-0.10;86.70;;;;;;5042496;28;20294;-84
2022/02/13 00:43:31;;;;;;;3.87;2.80;;;-0.10;86.40;;;;;;5038271;28;20239;-83
2022/02/13 00:45:58;;;;;;;4.10;2.77;;;0.00;85.80;;;;;;5037054;28;20307;-82
2022/02/13 00:48:25;;;;;;;5.10;3.10;;;0.00;85.80;;;;;;5031397;28;20723;-85
2022/02/13 00:50:52;;;;;;;3.80;2.30;;;0.00;86.60;;;;;;5042167;28;20231;-82
2022/02/13 00:53:19;;;;;;;4.60;2.70;;;0.00;84.60;;;;;;5035669;28;20290;-82
2022/02/13 00:55:47;;;;;;;3.50;2.53;;;-0.10;84.70;;;;;;5038561;28;20318;-85
2022/02/13 00:58:14;;;;;;;2.97;2.30;;;-0.20;85.20;;;;;;5042557;28;20203;-85
2022/02/13 01:00:40;;;;;;;4.03;2.50;;;-0.20;85.70;;;;;;5041958;28;20310;-83
2022/02/13 01:03:07;;;;;;;4.33;2.90;;;-0.30;85.60;;;;;;5038273;28;20666;-84
2022/02/13 01:05:34;;;;;;;3.17;2.40;;;-0.20;85.70;;;;;;5045964;28;20224;-82
2022/02/13 01:08:01;;;;;;;4.03;2.70;;;-0.30;85.60;;;;;;5046178;28;20211;-83
2022/02/13 01:10:28;;;;;;;4.33;2.80;;;-0.30;85.60;;;;;;5046909;28;20230;-82
2022/02/13 01:12:57;;;;;;;3.23;2.57;;;-0.30;85.60;;;;;;5038759;28;20228;-84
2022/02/13 01:15:24;;;;;;;5.50;3.10;;;-0.20;85.70;;;;;;5039789;28;20255;-82
2022/02/13 01:17:51;;;;;;;3.67;2.23;;;-0.10;85.80;;;;;;5044883;28;20220;-85
2022/02/13 01:20:18;;;;;;;2.47;2.00;;;-0.10;85.60;;;;;;5041463;28;20220;-84
2022/02/13 01:22:45;;;;;;;3.67;2.07;;;-0.10;83.90;;;;;;5041243;28;20197;-82
2022/02/13 01:25:12;;;;;;;4.30;2.20;;;-0.10;82.50;;;;;;5040427;28;20317;-83
2022/02/13 01:27:39;;;;;;;3.63;2.17;;;-0.10;81.40;;;;;;5044782;28;20225;-82
2022/02/13 01:30:08;;;;;;;5.47;2.50;;;-0.10;81.80;;;;;;5053512;28;20320;-82
2022/02/13 01:32:36;;;;;;;4.17;2.30;;;-0.20;82.60;;;;;;5041455;28;20239;-83
2022/02/13 01:35:03;;;;;;;3.83;2.10;;;-0.10;82.80;;;;;;5038057;28;20311;-82
2022/02/13 01:37:29;;;;;;;3.33;2.03;;;-0.30;82.80;;;;;;5027067;28;20206;-83
2022/02/13 01:39:56;;;;;;;4.70;2.20;;;-0.30;84.00;;;;;;5045090;28;20253;-82
2022/02/13 01:42:23;;;;;;;3.73;1.90;;;-0.30;83.40;;;;;;5040374;28;20206;-83
2022/02/13 01:44:52;;;;;;;5.23;1.73;;;-0.30;82.80;;;;;;5040985;28;20310;-83
2022/02/13 01:47:21;;;;;;;2.27;1.90;;;-0.30;81.80;;;;;;5041804;28;20237;-83
2022/02/13 01:49:48;;;;;;;5.07;1.90;;;-0.30;82.20;;;;;;5046666;28;20296;-83
2022/02/13 01:52:15;;;;;;;2.17;1.90;;;-0.20;81.80;;;;;;5041757;28;20315;-82
2022/02/13 01:54:43;;;;;;;4.37;2.20;;;-0.20;80.70;;;;;;5033755;28;20237;-82
2022/02/13 01:57:11;;;;;;;2.77;1.87;;;-0.20;80.90;;;;;;5028648;28;20209;-83
2022/02/13 01:59:39;;;;;;;4.97;2.20;;;-0.10;79.70;;;;;;5053082;28;20764;-84
2022/02/13 02:02:06;;;;;;;2.17;1.97;;;-0.10;79.90;;;;;;5032669;28;20213;-83
2022/02/13 02:04:35;;;;;;;3.40;2.07;;;-0.10;80.10;;;;;;5041029;28;20286;-82
2022/02/13 02:07:03;;;;;;;4.90;2.37;;;-0.10;80.10;;;;;;5040387;28;20799;-83
2022/02/13 02:09:30;;;;;;;3.27;2.10;;;-0.20;80.60;;;;;;5038824;28;20205;-85
2022/02/13 02:11:57;;;;;;;2.13;1.87;;;-0.20;78.80;;;;;;5036269;28;20320;-83
2022/02/13 02:14:24;;;;;;;2.93;2.07;;;-0.20;78.50;;;;;;5037861;28;20637;-82
2022/02/13 02:16:51;;;;;;;3.00;2.13;;;-0.30;78.60;;;;;;5041755;28;20280;-86
2022/02/13 02:19:17;;;;;;;4.90;2.77;;;-0.30;78.90;;;;;;5041078;28;20227;-82
2022/02/13 02:21:46;;;;;;;3.40;2.37;;;-0.20;80.40;;;;;;5041131;28;20273;-82
2022/02/13 02:24:16;;;;;;;5.50;2.10;;;-0.20;80.20;;;;;;5031580;28;20571;-84
2022/02/13 02:26:43;;;;;;;2.50;1.90;;;-0.20;79.70;;;;;;5037071;28;20229;-83
2022/02/13 02:29:10;;;;;;;3.97;1.90;;;-0.20;79.10;;;;;;5046741;28;20213;-82
2022/02/13 02:31:37;;;;;;;3.47;1.70;;;-0.20;78.20;;;;;;5033098;28;20239;-82
2022/02/13 02:34:04;;;;;;;2.63;1.60;;;-0.20;77.20;;;;;;5035045;28;20195;-82
2022/02/13 02:36:31;;;;;;;2.27;1.70;;;-0.20;77.20;;;;;;5038624;28;20256;-83
2022/02/13 02:38:58;;;;;;;3.43;1.90;;;-0.30;76.30;;;;;;5039850;28;20238;-82
2022/02/13 02:41:27;;;;;;;2.63;2.07;;;-0.30;77.10;;;;;;5046379;28;20222;-84
2022/02/13 02:43:53;;;;;;;6.43;2.43;;;-0.40;78.60;;;;;;5031848;28;20254;-84
2022/02/13 02:46:20;;;;;;;2.73;1.93;;;-0.40;78.30;;;;;;5042790;28;20235;-83
2022/02/13 02:48:47;;;;;;;2.83;1.87;;;-0.40;77.60;;;;;;5036082;28;20309;-84
2022/02/13 02:51:14;;;;;;;2.03;1.67;;;-0.50;78.90;;;;;;5027865;28;20228;-83
2022/02/13 02:53:42;;;;;;;2.83;2.33;;;-0.50;78.40;;;;;;5039113;28;20217;-91
2022/02/13 02:56:15;;;;;;;2.80;1.83;;;-0.40;77.90;;;;;;5031900;28;20222;-82
2022/02/13 02:58:43;;;;;;;2.30;1.67;;;-0.40;78.10;;;;;;5049233;28;20194;-83
2022/02/13 03:01:10;;;;;;;2.53;1.90;;;-0.40;78.30;;;;;;5039076;28;20302;-82
2022/02/13 03:03:37;;;;;;;4.03;2.10;;;-0.30;77.80;;;;;;5025309;28;20210;-82
2022/02/13 03:06:04;;;;;;;2.80;2.10;;;-0.30;77.10;;;;;;5028552;28;20229;-82
2022/02/13 03:08:31;;;;;;;4.50;1.93;;;-0.30;77.30;;;;;;5046912;28;20660;-82
2022/02/13 03:11:01;;;;;;;6.47;2.00;;;-0.30;78.00;;;;;;5044532;28;20798;-90
2022/02/13 03:13:28;;;;;;;5.47;1.90;;;-0.30;77.10;;;;;;5039583;28;20195;-82
2022/02/13 03:15:57;;;;;;;3.20;2.27;;;-0.30;77.30;;;;;;5032096;28;20226;-83
2022/02/13 03:18:24;;;;;;;2.80;1.90;;;-0.30;77.10;;;;;;5041855;28;20280;-82
2022/02/13 03:20:51;;;;;;;2.17;1.50;;;-0.30;77.20;;;;;;5036756;28;20230;-82
2022/02/13 03:23:19;;;;;;;3.47;1.60;;;-0.30;76.00;;;;;;5033743;28;20283;-82
2022/02/13 03:25:46;;;;;;;2.33;1.70;;;-0.30;75.20;;;;;;5030045;28;20231;-82
2022/02/13 03:28:14;;;;;;;3.63;1.70;;;-0.30;75.10;;;;;;5043325;28;20232;-89
2022/02/13 03:30:40;;;;;;;2.47;1.67;;;-0.30;75.90;;;;;;5048313;28;20227;-84
2022/02/13 03:33:09;;;;;;;1.83;1.67;;;-0.30;75.40;;;;;;5037231;28;20229;-84
2022/02/13 03:35:36;;;;;;;3.67;1.87;;;-0.30;75.80;;;;;;5037728;28;20221;-82
2022/02/13 03:38:04;;;;;;;2.67;1.77;;;-0.30;76.20;;;;;;5045017;28;20202;-82
2022/02/13 03:40:31;;;;;;;2.93;1.80;;;-0.30;75.60;;;;;;5034333;28;20258;-82
2022/02/13 03:42:58;;;;;;;2.63;1.97;;;-0.30;75.50;;;;;;5028792;28;20270;-83
2022/02/13 03:45:31;;;;;;;3.13;1.63;;;-0.40;76.40;;;;;;5032256;28;20228;-85
2022/02/13 03:47:58;;;;;;;1.93;1.60;;;-0.50;77.10;;;;;;5037832;28;20231;-85
2022/02/13 03:50:26;;;;;;;2.30;1.60;;;-0.60;76.90;;;;;;5032000;28;20708;-83
2022/02/13 03:52:53;;;;;;;2.67;1.83;;;-0.50;77.00;;;;;;5032229;28;20313;-82
2022/02/13 03:55:20;;;;;;;2.63;1.70;;;-0.40;76.70;;;;;;5044698;28;20313;-82
2022/02/13 03:57:47;;;;;;;2.67;1.60;;;-0.40;75.50;;;;;;5040675;28;20198;-86
2022/02/13 04:00:14;;;;;;;2.37;1.67;;;-0.40;75.20;;;;;;5037927;28;20307;-83
2022/02/13 04:02:42;;;;;;;1.40;1.30;;;-0.40;74.30;;;;;;5034016;28;20315;-83
2022/02/13 04:05:10;;;;;;;2.07;1.57;;;-0.50;74.60;;;;;;5037175;28;20227;-82
2022/02/13 04:07:39;;;;;;;1.40;1.30;;;-0.50;73.40;;;;;;5038390;28;20241;-83
2022/02/13 04:10:07;;;;;;;2.33;1.43;;;-0.50;71.40;;;;;;5037871;28;20578;-82
2022/02/13 04:12:35;;;;;;;2.03;1.40;;;-0.50;69.20;;;;;;5038434;28;20220;-88
2022/02/13 04:15:02;;;;;;;1.87;1.20;;;-0.50;71.50;;;;;;5036103;28;20230;-84
2022/02/13 04:17:29;;;;;;;2.43;1.30;;;-0.40;71.30;;;;;;5031157;28;20202;-84
2022/02/13 04:19:56;;;;;;;1.30;1.20;;;-0.40;67.70;;;;;;5052306;28;20300;-82
2022/02/13 04:22:23;;;;;;;3.10;1.50;;;-0.50;68.10;;;;;;5044424;28;20236;-83
2022/02/13 04:24:51;;;;;;;2.20;1.43;;;-0.50;69.60;;;;;;5030036;28;20234;-83
2022/02/13 04:27:18;;;;;;;2.27;1.43;;;-0.50;69.50;;;;;;5032920;28;20201;-82
2022/02/13 04:29:45;;;;;;;1.87;1.37;;;-0.50;70.30;;;;;;5033743;28;20326;-82
2022/02/13 04:32:12;;;;;;;3.20;1.53;;;-0.40;70.80;;;;;;5030437;28;20220;-82
2022/02/13 04:34:40;;;;;;;2.53;1.50;;;-0.40;70.40;;;;;;5025317;28;20335;-82
2022/02/13 04:37:07;;;;;;;2.27;1.67;;;-0.40;69.50;;;;;;5030450;28;20194;-82
2022/02/13 04:39:34;;;;;;;2.23;1.43;;;-0.50;70.40;;;;;;5047212;28;20281;-84
2022/02/13 04:42:02;;;;;;;1.90;1.40;;;-0.60;69.60;;;;;;5038925;28;20636;-82
2022/02/13 04:44:29;;;;;;;3.03;1.40;;;-0.50;71.00;;;;;;5037194;28;20302;-85
2022/02/13 04:46:57;;;;;;;2.53;1.20;;;-0.40;70.30;;;;;;5027794;28;20266;-82
2022/02/13 04:49:24;;;;;;;2.30;1.50;;;-0.30;69.30;;;;;;5046072;28;20300;-82
2022/02/13 04:51:51;;;;;;;1.43;1.33;;;-0.40;70.10;;;;;;5041743;28;20313;-82
2022/02/13 04:54:18;;;;;;;1.40;1.13;;;-0.50;67.70;;;;;;5040905;28;20209;-81
2022/02/13 04:56:45;;;;;;;2.17;1.40;;;-0.50;66.00;;;;;;5027837;28;20214;-82
2022/02/13 04:59:13;;;;;;;2.20;1.47;;;-0.50;67.60;;;;;;5053686;28;20282;-82
2022/02/13 05:01:40;;;;;;;1.53;1.20;;;-0.60;68.90;;;;;;5038795;28;20273;-82
2022/02/13 05:04:07;;;;;;;2.33;1.50;;;-0.70;69.90;;;;;;5036928;28;20205;-83
2022/02/13 05:06:35;;;;;;;1.40;1.30;;;-0.70;71.00;;;;;;5041437;28;20313;-82
2022/02/13 05:09:01;;;;;;;2.23;1.30;;;-0.70;70.00;;;;;;5046477;28;20223;-84
2022/02/13 05:11:29;;;;;;;2.27;1.40;;;-0.70;71.40;;;;;;5050128;28;20226;-82
2022/02/13 05:14:07;;;;;;;1.83;1.50;;;-0.70;70.30;;;;;;5041858;28;20280;-82
2022/02/13 05:16:35;;;;;;;1.77;1.20;;;-0.60;69.70;;;;;;5027064;28;20530;-83
2022/02/13 05:19:02;;;;;;;1.57;1.27;;;-0.60;70.20;;;;;;5054677;28;20205;-82
2022/02/13 05:21:29;;;;;;;1.50;1.30;;;-0.60;69.30;;;;;;5052673;28;20266;-82
2022/02/13 05:23:56;;;;;;;1.77;1.43;;;-0.50;69.50;;;;;;5028543;28;20210;-82
2022/02/13 05:26:23;;;;;;;1.40;1.30;;;-0.50;69.90;;;;;;5040398;28;20256;-83
2022/02/13 05:28:49;;;;;;;1.60;1.10;;;-0.50;67.50;;;;;;5049151;28;20277;-82
2022/02/13 05:31:17;;;;;;;2.70;1.43;;;-0.50;66.00;;;;;;5046266;28;20301;-84
2022/02/13 05:33:46;;;;;;;2.53;1.73;;;-0.50;64.00;;;;;;5043823;28;20244;-86
2022/02/13 05:36:12;;;;;;;1.67;1.47;;;-0.50;64.90;;;;;;5045094;28;20294;-83
2022/02/13 05:38:39;;;;;;;4.17;1.60;;;-0.50;64.10;;;;;;5057393;28;20266;-82
2022/02/13 05:41:06;;;;;;;2.50;1.40;;;-0.50;67.20;;;;;;5045307;28;20254;-84
2022/02/13 05:43:33;;;;;;;7.43;1.70;;;-0.60;68.20;;;;;;5055207;28;20238;-84
2022/02/13 05:46:00;;;;;;;1.27;1.17;;;-0.70;68.90;;;;;;5056201;28;20251;-85
2022/02/13 05:48:27;;;;;;;1.67;1.40;;;-0.70;67.80;;;;;;5053987;28;20810;-82
2022/02/13 05:50:56;;;;;;;2.93;1.23;;;-0.70;66.80;;;;;;5043266;28;20249;-82
2022/02/13 05:53:23;;;;;;;1.80;1.20;;;-0.70;65.80;;;;;;5038406;28;20214;-83
2022/02/13 05:55:50;;;;;;;3.23;1.37;;;-0.70;66.60;;;;;;5040645;28;20261;-83
2022/02/13 05:58:17;;;;;;;2.37;1.60;;;-0.70;68.30;;;;;;5040961;28;20214;-81
2022/02/13 06:00:44;;;;;;;3.13;1.67;;;-0.70;64.70;;;;;;5047454;28;20712;-83
2022/02/13 06:03:11;;;;;;;2.23;1.83;;;-0.70;65.00;;;;;;5034252;28;20289;-82
2022/02/13 06:05:37;;;;;;;1.93;1.17;;;-0.60;64.50;;;;;;5041659;28;20294;-83
2022/02/13 06:08:06;;;;;;;1.73;1.30;;;-0.60;65.00;;;;;;5033636;28;20228;-82
2022/02/13 06:10:33;;;;;;;2.30;1.40;;;-0.50;64.00;;;;;;5051610;28;20276;-82
2022/02/13 06:13:00;;;;;;;1.87;1.20;;;-0.60;63.80;;;;;;5039929;28;20264;-83
2022/02/13 06:15:26;;;;;;;1.97;1.40;;;-0.50;64.00;;;;;;5039577;28;20220;-82
2022/02/13 06:17:53;;;;;;;1.73;1.10;;;-0.60;63.90;;;;;;5042770;28;20258;-81
2022/02/13 06:20:20;;;;;;;2.33;1.40;;;-0.70;63.70;;;;;;5047024;28;20789;-86
2022/02/13 06:22:55;;;;;;;2.23;1.37;;;-0.70;65.30;;;;;;5039974;28;20226;-82
2022/02/13 06:25:23;;;;;;;5.73;1.53;;;-0.80;66.40;;;;;;5037500;28;20233;-82
2022/02/13 06:27:50;;;;;;;2.87;1.30;;;-0.90;63.60;;;;;;5044862;28;20285;-82
2022/02/13 06:30:17;;;;;;;2.03;1.30;;;-0.80;65.80;;;;;;5032395;28;20668;-82
2022/02/13 06:32:44;;;;;;;6.50;1.33;;;-0.70;63.70;;;;;;5032662;28;20710;-83
2022/02/13 06:35:11;;;;;;;5.00;1.33;;;-0.50;64.00;;;;;;5036915;28;20252;-83
2022/02/13 06:37:38;;;;;;;1.67;1.20;;;-0.40;62.60;;;;;;5042931;28;20242;-82
2022/02/13 06:40:07;;;;;;;3.10;1.40;;;-0.40;63.10;;;;;;5049761;28;20315;-82
2022/02/13 06:42:36;;;;;;;3.73;1.50;;;-0.40;62.60;;;;;;5034980;28;20203;-82
2022/02/13 06:45:03;;;;;;;1.87;1.40;;;-0.40;62.90;;;;;;5034715;28;20302;-82
2022/02/13 06:47:30;;;;;;;1.73;1.40;;;-0.30;63.20;;;;;;5046696;28;20201;-82
2022/02/13 06:49:57;;;;;;;3.33;1.50;;;-0.20;64.40;;;;;;5052111;28;20243;-82
2022/02/13 06:52:24;;;;;;;5.37;1.40;;;-0.20;64.30;;;;;;5040366;28;20580;-82
2022/02/13 06:54:51;;;;;;;2.10;1.43;;;-0.20;64.30;;;;;;5039707;28;20232;-82
2022/02/13 06:57:18;;;;;;;3.33;1.83;;;-0.20;62.60;;;;;;5040784;28;20234;-84
2022/02/13 06:59:47;;;;;;;1.43;1.27;;;-0.20;61.50;;;;;;5042982;28;20284;-82
2022/02/13 07:02:14;;;;;;;2.10;1.40;;;-0.20;63.90;;;;;;5041811;28;20210;-83
2022/02/13 07:04:41;;;;;;;1.67;1.30;;;-0.30;64.20;;;;;;5037789;28;20223;-82
2022/02/13 07:07:17;;;;;;;1.80;1.33;;;-0.30;64.10;;;;;;5024551;28;20220;-82
2022/02/13 07:09:43;;;;;;;1.87;1.53;;;-0.20;64.30;;;;;;5046440;28;20244;-90
2022/02/13 07:12:12;;;;;;;2.77;2.10;;;-0.10;64.40;;;;;;5035904;28;20222;-86
2022/02/13 07:14:39;;;;;;;5.13;3.30;;;0.00;64.40;;;;;;5020161;28;20312;-83
2022/02/13 07:17:08;;;;;;;4.97;3.60;;;0.00;64.40;;;;;;5029108;28;20659;-85
2022/02/13 07:19:37;;;;;;;5.47;3.80;;;0.00;63.30;;;;;;5044454;28;20286;-84
2022/02/13 07:22:07;;;;;;;7.60;4.27;;;0.00;64.40;;;;;;5039678;28;20201;-90
2022/02/13 07:24:34;;;;;;;4.30;3.43;;;0.00;64.40;;;;;;5035087;28;20213;-82
2022/02/13 07:27:01;;;;;;;6.33;2.60;;;0.10;64.60;;;;;;5044300;28;20197;-82
2022/02/13 07:32:34;;;;;;;4.10;2.20;;;0.10;66.60;;;;;;5033268;28;20198;-85
2022/02/13 07:35:02;;;;;;;3.53;2.60;;;0.10;64.60;;;;;;5045158;28;20242;-81
2022/02/13 07:37:29;;;;;;;2.90;2.33;;;0.10;64.60;;;;;;5047110;28;20298;-81
2022/02/13 07:40:04;;;;;;;3.13;2.37;;;0.20;62.30;;;;;;5035751;28;20228;-83
2022/02/13 07:42:33;;;;;;;4.23;2.17;;;0.30;62.60;;;;;;5043375;28;20251;-85
2022/02/13 07:45:00;;;;;;;3.13;2.10;;;0.50;65.00;;;;;;5043793;28;20252;-80
2022/02/13 07:47:27;;;;;;;3.37;1.97;;;0.60;63.60;;;;;;5041404;28;20303;-88
2022/02/13 07:49:56;;;;;;;2.70;1.80;;;0.80;65.30;;;;;;5050201;28;20225;-82
2022/02/13 07:52:25;;;;;;;2.17;1.87;;;1.30;60.40;;;;;;5045083;28;20540;-83
2022/02/13 07:54:54;;;;;;;3.17;2.00;;;1.80;56.00;;;;;;5043867;28;20238;-81
2022/02/13 07:57:22;;;;;;;4.63;2.10;;;2.20;53.70;;;;;;5039149;28;20650;-83
2022/02/13 07:59:51;;;;;;;3.13;2.10;;;2.60;51.30;;;;;;5035662;28;20233;-82
2022/02/13 08:02:18;;;;;;;4.23;2.10;;;3.20;45.10;;;;;;5032073;28;20566;-79
2022/02/13 08:04:45;;;;;;;2.77;2.40;;;3.80;41.90;;;;;;5033463;28;20253;-84
2022/02/13 08:07:13;;;;;;;4.07;2.37;;;4.00;40.40;;;;;;5039617;28;20664;-84
2022/02/13 08:09:40;;;;;;;5.10;2.10;;;4.00;37.70;;;;;;5036477;28;20252;-81
2022/02/13 08:12:09;;;;;;;2.97;2.30;;;3.90;37.00;;;;;;5037535;28;20278;-79
2022/02/13 08:14:36;;;;;;;3.73;2.27;;;3.70;38.40;;;;;;5035401;28;20275;-79
2022/02/13 08:17:03;;;;;;;2.27;1.73;;;3.50;40.50;;;;;;5035351;28;20230;-81
2022/02/13 08:19:35;;;;;;;4.40;2.17;;;3.40;38.30;;;;;;5041168;28;20551;-79
2022/02/13 08:22:02;;;;;;;2.07;1.57;;;3.40;42.00;;;;;;5035389;28;20240;-78
2022/02/13 08:24:31;;;;;;;1.90;1.53;;;3.50;44.20;;;;;;5043728;28;20204;-81
2022/02/13 08:26:57;;;;;;;3.57;1.87;;;3.50;38.00;;;;;;5036200;28;20209;-79
2022/02/13 08:29:24;;;;;;;4.60;1.90;;;3.80;38.70;;;;;;5046496;28;20208;-79
2022/02/13 08:31:51;;;;;;;3.63;1.90;;;3.80;38.40;;;;;;5024835;28;20205;-83
2022/02/13 08:34:18;;;;;;;3.23;1.80;;;4.10;38.40;;;;;;5026039;28;20223;-83
2022/02/13 08:36:45;;;;;;;2.97;1.60;;;4.60;39.60;;;;;;5036633;28;20214;-84
2022/02/13 08:39:12;;;;;;;2.43;1.60;;;4.90;34.50;;;;;;5061638;28;20202;-85
2022/02/13 08:41:41;;;;;;;3.03;1.67;;;5.30;29.90;;;;;;5048898;28;20278;-83
2022/02/13 08:44:07;;;;;;;4.80;1.67;;;5.60;30.70;;;;;;5048494;28;20584;-84
2022/02/13 08:46:46;;;;;;;2.47;1.70;;;6.00;30.50;;;;;;5047486;28;20261;-82
2022/02/13 08:49:13;;;;;;;1.98;1.52;;;6.20;28.80;;;;;;5048445;28;20574;-83
2022/02/13 08:51:47;;;;;;;2.47;1.65;;;6.30;26.70;;;;;;5048434;28;20281;-83
2022/02/13 08:54:14;;;;;;;2.10;1.48;;;6.40;28.90;;;;;;5047629;28;20218;-89
2022/02/13 08:56:42;;;;;;;1.93;1.40;;;6.40;27.10;;;;;;5048480;28;20226;-85
2022/02/13 08:59:09;;;;;;;1.65;1.40;;;6.50;24.70;;;;;;5043296;28;20211;-83
2022/02/13 09:01:37;;;;;;;2.75;1.27;;;6.80;26.50;;;;;;5051001;28;20226;-83
2022/02/13 09:04:05;;;;;;;2.08;1.40;;;7.20;23.00;;;;;;5049540;28;20206;-83
2022/02/13 09:09:26;;;;;;;2.38;1.08;;;9.00;22.20;;;;;;5043537;28;20262;-82
2022/02/13 09:11:58;;;;;;;2.20;1.50;;;10.40;20.00;;;;;;5051863;28;20234;-84
2022/02/13 09:14:26;;;;;;;1.33;1.23;;;11.70;16.20;;;;;;5052891;28;20803;-84
2022/02/13 09:16:53;;;;;;;3.08;1.48;;;12.70;12.90;;;;;;5053051;28;20273;-87
2022/02/13 09:19:47;;;;;;;1.90;1.52;;;12.90;12.60;;;;;;5044173;28;20269;-84
2022/02/13 09:22:21;;;;;;;1.92;1.42;;;14.00;13.10;;;;;;5042237;28;20207;-84
2022/02/13 09:24:51;;;;;;;1.90;1.40;;;14.80;10.60;;;;;;5045003;28;20201;-85
2022/02/13 09:27:22;;;;;;;1.33;1.23;;;15.20;8.70;;;;;;5040034;28;20200;-84
2022/02/13 09:29:52;;;;;;;1.60;1.50;;;15.80;8.30;;;;;;5032636;28;20258;-85
2022/02/13 09:32:19;;;;;;;3.72;1.70;;;16.90;9.00;;;;;;5047568;28;20206;-87
2022/02/13 09:34:46;;;;;;;2.28;2.00;;;18.10;10.60;;;;;;5042664;28;20236;-84
2022/02/13 09:37:14;;;;;;;1.63;1.50;;;18.30;7.80;;;;;;5045555;28;20225;-81
2022/02/13 09:39:41;;;;;;;2.67;1.88;;;19.00;5.70;;;;;;5047565;28;20317;-83
2022/02/13 09:42:10;;;;;;;1.60;1.50;;;19.30;5.70;;;;;;5044781;28;20205;-83
2022/02/13 09:44:38;;;;;;;2.38;1.85;;;20.50;4.70;;;;;;5041836;28;20194;-84
2022/02/13 09:47:07;;;;;;;2.28;1.70;;;21.20;4.80;;;;;;5043194;28;20194;-81
2022/02/13 09:49:34;;;;;;;3.25;1.70;;;21.30;5.40;;;;;;5046663;28;20277;-82
2022/02/13 09:52:01;;;;;;;2.88;1.75;;;21.40;4.80;;;;;;5043977;28;20206;-79
2022/02/13 09:54:28;;;;;;;2.95;2.22;;;21.50;4.00;;;;;;5041848;28;20218;-79
2022/02/13 10:00:26;;;;;;;2.20;1.70;;;18.70;5.00;;;;;;5000831;28;20230;-83
2022/02/13 10:02:58;;;;;;;3.33;1.77;;;19.50;6.30;;;;;;5029271;28;20214;-81
2022/02/13 10:05:30;;;;;;;1.70;1.60;;;19.80;4.80;;;;;;5040429;28;20282;-84
2022/02/13 10:07:57;;;;;;;4.53;2.78;;;20.20;5.60;;;;;;5044033;28;20202;-79
2022/02/13 10:10:27;;;;;;;3.10;1.90;;;20.90;4.30;;;;;;5033779;28;20600;-81
2022/02/13 10:12:54;;;;;;;2.78;2.10;;;20.80;4.10;;;;;;5036011;28;20198;-80
2022/02/13 10:15:32;;;;;;;2.53;1.90;;;20.70;4.10;;;;;;5042282;28;20681;-81
2022/02/13 10:18:05;;;;;;;5.50;2.95;;;20.70;4.60;;;;;;5037996;28;20258;-80
2022/02/13 10:20:33;;;;;;;2.55;1.90;;;20.20;5.50;;;;;;5043717;28;20258;-80
2022/02/13 10:23:08;;;;;;;2.08;1.88;;;19.90;4.80;;;;;;5031158;28;20574;-85
2022/02/13 10:25:36;;;;;;;3.33;2.13;;;18.10;6.70;;;;;;5038509;28;20232;-83
2022/02/13 10:28:11;;;;;;;4.18;1.75;;;18.50;5.80;;;;;;5035886;28;20632;-82
2022/02/13 10:30:41;;;;;;;2.05;1.90;;;19.00;5.30;;;;;;5054597;28;20795;-82
2022/02/13 10:33:32;;;;;;;3.35;2.42;;;18.00;7.30;;;;;;5041763;28;20198;-83
2022/02/13 10:36:07;;;;;;;2.75;2.05;;;18.70;6.20;;;;;;5030365;28;20598;-83
2022/02/13 10:38:36;;;;;;;6.35;3.85;;;18.20;8.30;;;;;;5040545;28;20212;-81
2022/02/13 10:41:18;;;;;;;4.72;2.40;;;17.50;6.80;;;;;;5048073;28;20221;-83
2022/02/13 10:43:53;;;;;;;2.50;1.83;;;17.30;9.20;;;;;;5043597;28;20241;-86
2022/02/13 10:46:22;;;;;;;8.40;7.57;;;16.50;8.70;;;;;;5041533;28;20225;-86
2022/02/13 10:48:49;;;;;;;4.47;2.25;;;17.30;9.20;;;;;;5041398;28;20216;-86
2022/02/13 10:51:16;;;;;;;2.92;2.00;;;17.00;7.90;;;;;;5048898;28;20286;-83
2022/02/13 10:53:44;;;;;;;4.30;2.47;;;17.80;8.40;;;;;;5021936;28;20223;-83
2022/02/13 10:56:11;;;;;;;4.85;2.33;;;17.20;9.10;;;;;;5035004;28;20226;-84
2022/02/13 10:58:38;;;;;;;5.22;2.28;;;16.70;8.80;;;;;;5047369;28;20261;-83
2022/02/13 11:01:07;;;;;;;4.00;2.20;;;17.60;9.00;;;;;;5051601;28;20810;-83
2022/02/13 11:03:37;;;;;;;4.05;2.47;;;17.80;9.50;;;;;;5045285;28;20270;-84
2022/02/13 11:06:06;;;;;;;4.40;2.30;;;18.60;10.10;;;;;;5043533;28;20237;-81
2022/02/13 11:08:39;;;;;;;4.43;2.55;;;18.10;9.70;;;;;;5049905;28;20237;-82
2022/02/13 11:11:06;;;;;;;8.10;2.85;;;18.10;7.90;;;;;;5043273;28;20215;-82
2022/02/13 11:13:34;;;;;;;2.78;2.22;;;17.90;9.60;;;;;;5038550;28;20202;-83
2022/02/13 11:16:01;;;;;;;2.10;1.90;;;17.80;9.60;;;;;;5031462;28;20229;-81
2022/02/13 11:18:31;;;;;;;3.17;2.38;;;17.10;9.10;;;;;;5047301;28;20220;-82
2022/02/13 11:21:00;;;;;;;6.07;3.75;;;16.90;9.80;;;;;;5036295;28;20227;-81
2022/02/13 11:24:18;;;;;;;3.30;3.00;;;16.80;10.10;;;;;;5030294;28;20705;-86
2022/02/13 11:30:03;;;;;;;4.53;2.88;;;14.40;12.00;;;;;;5032172;28;20268;-86
2022/02/13 11:32:42;;;;;;;5.22;2.50;;;14.10;14.20;;;;;;5044569;28;20217;-85
2022/02/13 11:42:25;;;;;;;19.33;14.65;;;12.80;16.10;;;;;;5061719;28;20197;-84
2022/02/13 11:45:18;;;;;;;4.75;2.53;;;12.50;18.10;;;;;;4996120;28;20226;-85
2022/02/13 11:47:46;;;;;;;6.55;3.33;;;12.50;18.20;;;;;;5066457;28;20225;-85
2022/02/13 11:56:31;;;;;;;6.85;2.42;;;12.30;17.40;;;;;;5078450;28;20235;-83
2022/02/13 11:58:59;;;;;;;5.32;2.63;;;11.90;18.30;;;;;;5065948;28;20649;-83
2022/02/13 12:01:48;;;;;;;6.40;3.17;;;11.80;18.30;;;;;;5064184;28;20241;-85
2022/02/13 12:04:17;;;;;;;15.25;9.30;;;11.50;18.80;;;;;;5056015;28;20633;-84
2022/02/13 12:07:36;;;;;;;6.38;2.83;;;11.40;20.60;;;;;;5045793;28;20230;-82
2022/02/13 12:10:06;;;;;;;8.70;4.38;;;11.60;19.00;;;;;;5053044;28;20225;-86
2022/02/13 12:12:33;;;;;;;5.95;3.92;;;11.60;19.60;;;;;;5068799;28;20204;-86
2022/02/13 12:15:02;;;;;;;6.30;2.00;;;11.50;19.30;;;;;;5061779;28;20225;-84
2022/02/13 12:17:34;;;;;;;4.97;2.80;;;11.30;18.20;;;;;;5073629;28;20201;-84
2022/02/13 12:20:04;;;;;;;12.05;7.40;;;11.40;18.70;;;;;;5071273;28;20231;-83
2022/02/13 12:22:32;;;;;;;9.25;6.75;;;11.60;18.20;;;;;;5083356;28;20272;-85
2022/02/13 12:28:33;;;;;;;8.25;5.78;;;11.20;16.60;;;;;;5086136;28;20184;-84
2022/02/13 12:31:05;;;;;;;4.47;2.40;;;11.20;19.20;;;;;;5077492;28;20233;-83
2022/02/13 12:37:01;;;;;;;8.32;2.65;;;11.40;16.90;;;;;;5070652;28;20581;-84
2022/02/13 12:39:28;;;;;;;3.72;1.80;;;11.30;14.90;;;;;;5029541;28;20237;-83
2022/02/13 12:41:56;;;;;;;5.10;2.10;;;11.30;15.60;;;;;;5046663;28;20233;-83
2022/02/13 12:44:55;;;;;;;11.60;4.60;;;11.30;15.00;;;;;;5048405;28;20201;-86
2022/02/13 12:47:31;;;;;;;3.50;2.05;;;11.40;15.70;;;;;;5071774;28;20213;-83
2022/02/13 12:50:01;;;;;;;3.35;2.35;;;11.40;16.00;;;;;;5070426;28;20292;-83
2022/02/13 12:52:31;;;;;;;3.55;2.17;;;11.40;17.40;;;;;;5054545;28;20222;-83
2022/02/13 12:55:00;;;;;;;5.38;2.10;;;11.30;15.60;;;;;;5074540;28;20229;-84
2022/02/13 12:57:28;;;;;;;5.25;2.50;;;11.20;15.90;;;;;;5074135;28;20244;-84
2022/02/13 12:59:55;;;;;;;17.10;11.10;;;11.20;17.00;;;;;;5065173;28;20198;-84
2022/02/13 13:02:23;;;;;;;5.03;2.15;;;11.20;17.00;;;;;;5063000;28;20248;-83
2022/02/13 13:04:51;;;;;;;7.18;2.30;;;11.10;16.40;;;;;;5063984;28;20277;-83
2022/02/13 13:07:26;;;;;;;3.22;1.80;;;11.00;17.00;;;;;;5065039;28;20206;-83
2022/02/13 13:09:56;;;;;;;3.83;2.10;;;11.00;15.90;;;;;;5063268;28;20236;-83
2022/02/13 13:12:23;;;;;;;3.28;2.20;;;11.10;16.60;;;;;;5078839;28;20226;-83
2022/02/13 13:14:59;;;;;;;4.43;1.92;;;11.00;16.50;;;;;;5071685;28;20229;-84
2022/02/13 13:17:32;;;;;;;5.32;2.00;;;11.00;16.10;;;;;;5079865;28;20238;-84
2022/02/13 13:19:58;;;;;;;4.28;2.17;;;11.10;16.30;;;;;;5073599;28;20319;-86
2022/02/13 13:22:27;;;;;;;4.68;2.20;;;11.00;16.00;;;;;;5066616;28;20281;-86
2022/02/13 13:24:54;;;;;;;3.90;2.13;;;11.00;16.10;;;;;;5058467;28;20234;-84
2022/02/13 13:27:24;;;;;;;3.47;2.30;;;11.00;17.10;;;;;;5069760;28;20273;-85
2022/02/13 13:29:55;;;;;;;5.20;2.17;;;10.90;16.50;;;;;;5062780;28;20251;-85
2022/02/13 13:32:42;;;;;;;10.90;8.35;;;11.00;16.70;;;;;;5063490;28;20212;-84